createdAt,value
2018-11-14T00:00:00.055Z,69.80
2018-11-14T00:02:28.256Z,69.90
2018-11-14T00:04:56.467Z,69.90
2018-11-14T00:07:24.700Z,69.80
2018-11-14T00:09:53.031Z,69.80
2018-11-14T00:12:21.270Z,69.80
2018-11-14T00:14:49.478Z,70.00
2018-11-14T00:17:17.741Z,70.20
2018-11-14T00:19:45.998Z,70.10
2018-11-14T00:22:14.215Z,70.10
2018-11-14T00:24:42.493Z,69.90
2018-11-14T00:27:10.651Z,70.00
2018-11-14T00:29:38.840Z,69.70
2018-11-14T00:32:07.112Z,69.80
2018-11-14T00:34:35.411Z,70.00
2018-11-14T00:37:03.566Z,70.30
2018-11-14T00:39:31.762Z,70.00
2018-11-14T00:42:00.008Z,70.10
2018-11-14T00:44:28.191Z,70.20
2018-11-14T00:46:56.422Z,70.00
2018-11-14T00:49:24.610Z,70.20
2018-11-14T00:51:52.819Z,70.20
2018-11-14T00:54:21.033Z,70.20
2018-11-14T00:56:49.286Z,70.00
2018-11-14T00:59:18.321Z,70.30
2018-11-14T01:01:46.600Z,70.30
2018-11-14T01:04:14.747Z,70.20
2018-11-14T01:06:43.038Z,70.30
2018-11-14T01:09:12.806Z,70.50
2018-11-14T01:11:41.027Z,70.70
2018-11-14T01:14:10.066Z,70.60
2018-11-14T01:16:38.299Z,70.50
2018-11-14T01:19:07.371Z,70.40
2018-11-14T01:21:35.673Z,70.30
2018-11-14T01:24:03.938Z,70.50
2018-11-14T01:26:32.140Z,70.50
2018-11-14T01:29:00.682Z,70.50
2018-11-14T01:31:28.891Z,70.50
2018-11-14T01:33:57.176Z,70.40
2018-11-14T01:36:25.318Z,70.60
2018-11-14T01:38:53.530Z,70.70
2018-11-14T01:41:21.866Z,70.70
2018-11-14T01:43:50.119Z,70.40
2018-11-14T01:46:18.330Z,70.50
2018-11-14T01:48:46.639Z,70.50
2018-11-14T01:51:14.859Z,70.60
2018-11-14T01:53:43.099Z,71.30
2018-11-14T01:56:11.314Z,70.70
2018-11-14T01:58:39.538Z,70.50
2018-11-14T02:01:07.791Z,70.60
2018-11-14T02:03:36.010Z,70.60
2018-11-14T02:06:04.224Z,70.70
2018-11-14T02:08:32.419Z,70.50
2018-11-14T02:11:00.614Z,70.60
2018-11-14T02:13:28.812Z,70.70
2018-11-14T02:15:57.024Z,70.70
2018-11-14T02:18:25.227Z,70.70
2018-11-14T02:20:53.430Z,70.80
2018-11-14T02:23:21.647Z,70.60
2018-11-14T02:25:49.851Z,70.80
2018-11-14T02:28:18.054Z,70.50
2018-11-14T02:30:46.251Z,70.50
2018-11-14T02:33:14.458Z,70.40
2018-11-14T02:35:42.638Z,70.70
2018-11-14T02:38:10.826Z,70.60
2018-11-14T02:40:39.014Z,70.60
2018-11-14T02:43:07.224Z,70.80
2018-11-14T02:45:35.435Z,70.60
2018-11-14T02:48:03.638Z,70.80
2018-11-14T02:50:31.824Z,70.80
2018-11-14T02:53:00.023Z,71.00
2018-11-14T02:55:28.214Z,71.00
2018-11-14T02:57:56.415Z,70.90
2018-11-14T03:00:24.606Z,71.90
2018-11-14T03:02:52.812Z,71.20
2018-11-14T03:05:20.994Z,71.10
2018-11-14T03:07:49.193Z,71.20
2018-11-14T03:10:19.252Z,71.00
2018-11-14T03:12:47.518Z,70.80
2018-11-14T03:15:18.086Z,71.10
2018-11-14T03:17:46.275Z,70.90
2018-11-14T03:20:15.826Z,70.90
2018-11-14T03:22:43.986Z,71.00
2018-11-14T03:25:13.101Z,71.20
2018-11-14T03:27:41.282Z,71.10
2018-11-14T03:30:11.891Z,71.10
2018-11-14T03:32:40.588Z,71.80
2018-11-14T03:35:09.419Z,71.10
2018-11-14T03:37:37.849Z,71.20
2018-11-14T03:40:07.266Z,71.00
2018-11-14T03:42:35.501Z,71.10
2018-11-14T03:45:03.694Z,70.90
2018-11-14T03:47:31.869Z,71.00
2018-11-14T03:50:00.056Z,71.00
2018-11-14T03:52:28.249Z,71.00
2018-11-14T03:54:56.414Z,71.90
2018-11-14T03:57:24.593Z,71.00
2018-11-14T03:59:52.777Z,71.00
2018-11-14T04:02:20.949Z,70.70
2018-11-14T04:04:49.146Z,70.70
2018-11-14T04:07:17.327Z,70.70
2018-11-14T04:09:45.509Z,70.70
2018-11-14T04:12:13.671Z,70.90
2018-11-14T04:14:41.859Z,70.70
2018-11-14T04:17:10.033Z,70.90
2018-11-14T04:19:38.205Z,70.90
2018-11-14T04:22:06.393Z,70.80
2018-11-14T04:24:34.651Z,70.80
2018-11-14T04:27:02.842Z,70.80
2018-11-14T04:29:31.054Z,70.90
2018-11-14T04:31:59.259Z,70.80
2018-11-14T04:34:27.463Z,70.80
2018-11-14T04:36:55.649Z,70.80
2018-11-14T04:39:23.890Z,70.70
2018-11-14T04:41:52.086Z,70.80
2018-11-14T04:44:20.319Z,71.00
2018-11-14T04:46:48.513Z,71.00
2018-11-14T04:49:16.693Z,71.00
2018-11-14T04:51:44.882Z,71.10
2018-11-14T04:54:13.075Z,71.20
2018-11-14T04:56:41.272Z,71.10
2018-11-14T04:59:09.516Z,71.10
2018-11-14T05:01:37.727Z,71.00
2018-11-14T05:04:05.974Z,71.10
2018-11-14T05:06:34.249Z,71.10
2018-11-14T05:09:02.564Z,71.20
2018-11-14T05:11:30.870Z,71.10
2018-11-14T05:13:59.055Z,71.20
2018-11-14T05:16:27.250Z,71.10
2018-11-14T05:18:55.442Z,71.20
2018-11-14T05:21:23.626Z,71.20
2018-11-14T05:23:51.826Z,71.20
2018-11-14T05:26:20.032Z,71.10
2018-11-14T05:28:48.237Z,71.20
2018-11-14T05:31:16.474Z,71.30
2018-11-14T05:33:44.663Z,71.30
2018-11-14T05:36:12.949Z,71.20
2018-11-14T05:38:41.147Z,71.20
2018-11-14T05:41:09.400Z,71.10
2018-11-14T05:43:37.586Z,71.30
2018-11-14T05:46:05.914Z,71.10
2018-11-14T05:48:34.149Z,71.20
2018-11-14T05:51:02.403Z,71.60
2018-11-14T05:53:30.637Z,71.30
2018-11-14T05:55:58.963Z,71.40
2018-11-14T05:58:27.209Z,71.40
2018-11-14T06:00:55.438Z,71.20
2018-11-14T06:03:23.667Z,71.00
2018-11-14T06:05:51.878Z,71.10
2018-11-14T06:08:20.087Z,71.00
2018-11-14T06:10:48.275Z,70.90
2018-11-14T06:13:16.494Z,70.80
2018-11-14T06:15:44.720Z,70.70
2018-11-14T06:18:12.917Z,70.70
2018-11-14T06:20:41.118Z,70.70
2018-11-14T06:23:09.358Z,70.50
2018-11-14T06:25:38.490Z,70.50
2018-11-14T06:28:07.877Z,70.50
2018-11-14T06:30:43.411Z,70.50
2018-11-14T06:33:12.404Z,70.50
2018-11-14T06:35:40.595Z,70.60
2018-11-14T06:38:08.785Z,70.50
2018-11-14T06:40:37.006Z,70.70
2018-11-14T06:43:05.231Z,70.70
2018-11-14T06:45:34.106Z,70.60
2018-11-14T06:48:02.927Z,70.80
2018-11-14T06:50:31.111Z,70.70
2018-11-14T06:53:00.789Z,70.70
2018-11-14T06:55:28.984Z,70.80
2018-11-14T06:57:57.182Z,70.80
2018-11-14T07:00:26.423Z,70.50
2018-11-14T07:02:55.027Z,70.40
2018-11-14T07:05:23.300Z,70.70
2018-11-14T07:07:51.501Z,70.50
2018-11-14T07:10:21.007Z,70.40
2018-11-14T07:12:49.262Z,70.40
2018-11-14T07:15:18.747Z,70.50
2018-11-14T07:17:47.589Z,70.80
2018-11-14T07:20:19.403Z,70.80
2018-11-14T07:22:47.597Z,70.80
2018-11-14T07:25:16.154Z,70.80
2018-11-14T07:27:44.555Z,70.90
2018-11-14T07:30:14.855Z,72.00
2018-11-14T07:32:44.376Z,71.20
2018-11-14T07:35:13.762Z,71.60
2018-11-14T07:37:42.870Z,71.20
2018-11-14T07:40:12.992Z,71.20
2018-11-14T07:42:41.975Z,71.40
2018-11-14T07:45:12.454Z,71.30
2018-11-14T07:47:40.682Z,71.40
2018-11-14T07:50:12.086Z,71.40
2018-11-14T07:52:40.307Z,71.50
2018-11-14T07:55:09.705Z,71.70
2018-11-14T07:57:38.208Z,71.80
2018-11-14T08:00:09.934Z,72.30
2018-11-14T08:02:38.201Z,71.70
2018-11-14T08:05:06.530Z,71.80
2018-11-14T08:07:35.760Z,71.70
2018-11-14T08:10:04.711Z,71.70
2018-11-14T08:12:33.173Z,71.60
2018-11-14T08:15:01.507Z,71.70
2018-11-14T08:17:29.790Z,71.90
2018-11-14T08:19:58.012Z,72.10
2018-11-14T08:22:26.577Z,72.10
2018-11-14T08:24:54.817Z,71.90
2018-11-14T08:27:23.044Z,71.70
2018-11-14T08:29:51.317Z,71.80
2018-11-14T08:32:19.519Z,71.50
2018-11-14T08:34:47.810Z,71.50
2018-11-14T08:37:16.039Z,71.40
2018-11-14T08:39:44.243Z,71.10
2018-11-14T08:42:12.426Z,71.40
2018-11-14T08:44:40.611Z,71.20
2018-11-14T08:47:08.931Z,71.60
2018-11-14T08:49:37.161Z,71.00
2018-11-14T08:52:05.831Z,71.10
2018-11-14T08:54:34.073Z,70.50
2018-11-14T08:57:02.295Z,70.80
2018-11-14T08:59:30.513Z,70.20
2018-11-14T09:01:58.697Z,69.80
2018-11-14T09:04:26.921Z,69.70
2018-11-14T09:06:55.117Z,69.70
2018-11-14T09:09:23.449Z,69.60
2018-11-14T09:11:51.626Z,69.50
2018-11-14T09:14:19.832Z,69.30
2018-11-14T09:16:48.115Z,69.20
2018-11-14T09:19:16.306Z,69.50
2018-11-14T09:21:44.487Z,69.60
2018-11-14T09:24:13.517Z,68.80
2018-11-14T09:26:41.714Z,69.40
2018-11-14T09:29:09.926Z,68.00
2018-11-14T09:31:38.116Z,68.00
2018-11-14T09:34:06.524Z,66.20
2018-11-14T09:36:34.714Z,63.70
2018-11-14T09:39:02.917Z,61.40
2018-11-14T09:41:31.155Z,59.90
2018-11-14T09:43:59.303Z,60.40
2018-11-14T09:46:27.550Z,59.20
2018-11-14T09:48:56.182Z,59.60
2018-11-14T09:51:24.372Z,59.40
2018-11-14T09:53:52.570Z,59.10
2018-11-14T09:56:20.778Z,58.80
2018-11-14T09:58:49.063Z,58.50
2018-11-14T10:01:17.270Z,57.20
2018-11-14T10:03:45.455Z,56.30
2018-11-14T10:06:13.669Z,54.90
2018-11-14T10:08:41.869Z,54.10
2018-11-14T10:11:10.057Z,53.40
2018-11-14T10:13:38.259Z,52.70
2018-11-14T10:16:06.472Z,51.80
2018-11-14T10:18:34.723Z,51.20
2018-11-14T10:21:02.899Z,49.90
2018-11-14T10:23:31.038Z,49.60
2018-11-14T10:25:59.570Z,48.80
2018-11-14T10:28:27.763Z,47.90
2018-11-14T10:30:55.994Z,48.30
2018-11-14T10:33:24.152Z,47.50
2018-11-14T10:35:52.366Z,48.10
2018-11-14T10:38:20.545Z,47.80
2018-11-14T10:40:48.734Z,47.80
2018-11-14T10:43:17.079Z,47.70
2018-11-14T10:45:45.354Z,46.70
2018-11-14T10:48:13.601Z,46.70
2018-11-14T10:50:41.819Z,46.90
2018-11-14T10:53:10.055Z,47.20
2018-11-14T10:55:38.271Z,47.60
2018-11-14T10:58:06.730Z,48.30
2018-11-14T11:01:40.707Z,48.70
2018-11-14T11:04:15.043Z,48.90
2018-11-14T11:07:47.378Z,49.00
2018-11-14T11:10:21.079Z,49.70
2018-11-14T11:12:54.638Z,50.50
2018-11-14T11:15:34.136Z,51.90
2018-11-14T11:18:04.735Z,52.00
2018-11-14T11:20:33.030Z,52.60
2018-11-14T11:23:01.267Z,53.20
2018-11-14T11:25:29.466Z,53.50
2018-11-14T11:27:57.660Z,54.00
2018-11-14T11:30:25.839Z,54.10
2018-11-14T11:32:54.067Z,54.30
2018-11-14T11:35:22.326Z,54.60
2018-11-14T11:37:50.504Z,55.20
2018-11-14T11:40:18.697Z,55.60
2018-11-14T11:42:46.941Z,56.20
2018-11-14T11:45:15.151Z,56.30
2018-11-14T11:47:43.368Z,56.50
2018-11-14T11:50:11.637Z,56.80
2018-11-14T11:52:39.918Z,57.00
2018-11-14T11:55:08.142Z,57.10
2018-11-14T11:57:36.428Z,56.90
2018-11-14T12:00:06.480Z,56.80
2018-11-14T12:02:34.625Z,56.70
2018-11-14T12:05:02.831Z,56.70
2018-11-14T12:07:31.159Z,56.50
2018-11-14T12:09:59.597Z,56.40
2018-11-14T12:12:27.791Z,56.40
2018-11-14T12:14:55.978Z,56.60
2018-11-14T12:17:24.172Z,56.80
2018-11-14T12:19:52.382Z,56.10
2018-11-14T12:22:20.590Z,56.20
2018-11-14T12:24:48.778Z,55.90
2018-11-14T12:27:17.091Z,56.10
2018-11-14T12:29:45.296Z,56.60
2018-11-14T12:32:13.635Z,56.40
2018-11-14T12:34:41.914Z,55.80
2018-11-14T12:37:10.103Z,55.60
2018-11-14T12:39:38.298Z,55.60
2018-11-14T12:42:06.535Z,55.40
2018-11-14T12:44:34.722Z,55.40
2018-11-14T12:47:02.928Z,55.60
2018-11-14T12:49:31.150Z,55.80
2018-11-14T12:51:59.334Z,55.70
2018-11-14T12:54:27.510Z,55.60
2018-11-14T12:56:55.686Z,55.60
2018-11-14T12:59:23.934Z,55.80
2018-11-14T13:01:52.062Z,55.90
2018-11-14T13:04:20.255Z,55.90
2018-11-14T13:06:48.507Z,55.60
2018-11-14T13:09:16.708Z,55.70
2018-11-14T13:11:44.973Z,55.80
2018-11-14T13:14:13.138Z,55.90
2018-11-14T13:16:41.354Z,56.00
2018-11-14T13:19:09.536Z,55.80
2018-11-14T13:21:37.728Z,55.70
2018-11-14T13:24:05.931Z,55.70
2018-11-14T13:26:34.133Z,55.70
2018-11-14T13:29:02.528Z,55.40
2018-11-14T13:31:30.627Z,54.90
2018-11-14T13:33:58.866Z,54.60
2018-11-14T13:36:27.062Z,54.20
2018-11-14T13:38:55.274Z,54.10
2018-11-14T13:41:23.463Z,54.00
2018-11-14T13:43:51.649Z,53.80
2018-11-14T13:46:19.846Z,53.90
2018-11-14T13:48:48.196Z,53.90
2018-11-14T13:51:16.778Z,53.80
2018-11-14T13:53:44.731Z,54.00
2018-11-14T13:56:12.952Z,53.70
2018-11-14T13:58:41.134Z,53.80
2018-11-14T14:01:09.480Z,53.80
2018-11-14T14:03:37.667Z,53.70
2018-11-14T14:06:05.869Z,53.80
2018-11-14T14:08:34.077Z,54.00
2018-11-14T14:11:02.260Z,53.80
2018-11-14T14:13:30.510Z,54.70
2018-11-14T14:15:58.702Z,54.10
2018-11-14T14:18:27.518Z,54.00
2018-11-14T14:20:55.824Z,54.10
2018-11-14T14:23:24.042Z,54.20
2018-11-14T14:25:52.230Z,54.30
2018-11-14T14:28:20.474Z,54.40
2018-11-14T14:30:48.696Z,54.50
2018-11-14T14:33:16.840Z,54.70
2018-11-14T14:35:45.133Z,54.60
2018-11-14T14:38:13.461Z,54.80
2018-11-14T14:40:41.710Z,54.80
2018-11-14T14:43:09.999Z,54.90
2018-11-14T14:45:38.166Z,54.70
2018-11-14T14:48:06.374Z,54.60
2018-11-14T14:50:34.565Z,54.70
2018-11-14T14:53:02.815Z,54.90
2018-11-14T14:55:31.003Z,54.90
2018-11-14T14:57:59.232Z,54.70
2018-11-14T15:00:28.253Z,54.70
2018-11-14T15:02:56.546Z,54.80
2018-11-14T15:05:24.765Z,54.90
2018-11-14T15:07:52.943Z,55.00
2018-11-14T15:10:22.267Z,55.20
2018-11-14T15:12:50.450Z,55.40
2018-11-14T15:15:19.142Z,55.30
2018-11-14T15:17:47.327Z,55.20
2018-11-14T15:20:17.722Z,55.30
2018-11-14T15:22:45.977Z,55.30
2018-11-14T15:25:15.351Z,55.40
2018-11-14T15:27:43.999Z,55.50
2018-11-14T15:30:16.081Z,55.50
2018-11-14T15:32:44.538Z,55.60
2018-11-14T15:35:13.227Z,55.70
2018-11-14T15:37:41.659Z,55.80
2018-11-14T15:40:11.950Z,55.60
2018-11-14T15:42:40.136Z,55.70
2018-11-14T15:45:10.608Z,55.90
2018-11-14T15:47:38.816Z,55.90
2018-11-14T15:50:09.777Z,56.00
2018-11-14T15:52:37.974Z,56.10
2018-11-14T15:55:07.794Z,56.20
2018-11-14T15:57:36.558Z,56.30
2018-11-14T16:00:06.587Z,56.30
2018-11-14T16:02:34.966Z,56.60
2018-11-14T16:05:03.471Z,56.70
2018-11-14T16:07:31.679Z,56.80
2018-11-14T16:09:59.906Z,57.10
2018-11-14T16:12:29.291Z,57.10
2018-11-14T16:14:57.433Z,57.20
2018-11-14T16:17:25.669Z,57.80
2018-11-14T16:19:53.896Z,57.90
2018-11-14T16:22:22.123Z,58.00
2018-11-14T16:24:50.405Z,58.10
2018-11-14T16:27:18.535Z,58.00
2018-11-14T16:29:46.998Z,58.20
2018-11-14T16:32:15.395Z,58.30
2018-11-14T16:34:43.678Z,59.20
2018-11-14T16:37:11.950Z,58.50
2018-11-14T16:39:40.224Z,58.70
2018-11-14T16:42:08.405Z,58.70
2018-11-14T16:44:36.633Z,58.80
2018-11-14T16:47:04.862Z,58.90
2018-11-14T16:49:33.119Z,59.10
2018-11-14T16:52:01.313Z,59.30
2018-11-14T16:54:29.594Z,59.60
2018-11-14T16:56:57.794Z,59.60
2018-11-14T16:59:26.019Z,59.80
2018-11-14T17:01:54.214Z,60.00
2018-11-14T17:04:22.437Z,60.00
2018-11-14T17:06:50.748Z,60.00
2018-11-14T17:09:19.012Z,60.70
2018-11-14T17:11:47.912Z,60.00
2018-11-14T17:14:16.152Z,60.10
2018-11-14T17:16:44.363Z,60.00
2018-11-14T17:19:12.597Z,60.10
2018-11-14T17:21:40.774Z,60.20
2018-11-14T17:24:09.067Z,60.30
2018-11-14T17:26:37.758Z,60.50
2018-11-14T17:29:06.151Z,60.40
2018-11-14T17:31:34.351Z,60.60
2018-11-14T17:34:02.590Z,60.90
2018-11-14T17:36:31.516Z,60.90
2018-11-14T17:38:59.746Z,60.80
2018-11-14T17:41:28.011Z,61.00
2018-11-14T17:43:56.218Z,61.10
2018-11-14T17:46:24.412Z,61.30
2018-11-14T17:48:52.611Z,61.30
2018-11-14T17:51:20.830Z,61.20
2018-11-14T17:53:49.085Z,61.10
2018-11-14T17:56:17.408Z,61.20
2018-11-14T17:58:45.614Z,61.30
2018-11-14T18:01:13.979Z,61.30
2018-11-14T18:03:42.022Z,61.50
2018-11-14T18:06:10.246Z,61.70
2018-11-14T18:08:38.470Z,61.80
2018-11-14T18:11:06.664Z,61.90
2018-11-14T18:13:34.893Z,61.90
2018-11-14T18:16:03.114Z,61.90
2018-11-14T18:18:31.306Z,61.90
2018-11-14T18:20:59.518Z,62.10
2018-11-14T18:23:27.739Z,62.10
2018-11-14T18:25:56.165Z,62.10
2018-11-14T18:28:24.334Z,62.10
2018-11-14T18:30:52.741Z,62.20
2018-11-14T18:33:20.887Z,62.30
2018-11-14T18:35:49.116Z,62.40
2018-11-14T18:38:17.325Z,62.50
2018-11-14T18:40:45.595Z,62.40
2018-11-14T18:43:13.795Z,62.50
2018-11-14T18:45:42.043Z,62.70
2018-11-14T18:48:10.168Z,62.70
2018-11-14T18:50:38.364Z,62.90
2018-11-14T18:53:06.639Z,62.80
2018-11-14T18:55:35.379Z,63.00
2018-11-14T18:58:04.281Z,63.00
2018-11-14T19:00:33.368Z,63.20
2018-11-14T19:03:01.565Z,63.40
2018-11-14T19:05:29.807Z,63.50
2018-11-14T19:07:58.024Z,63.40
2018-11-14T19:10:27.845Z,63.50
2018-11-14T19:12:56.107Z,63.60
2018-11-14T19:15:25.674Z,63.80
2018-11-14T19:17:54.037Z,63.90
2018-11-14T19:20:26.425Z,64.00
2018-11-14T19:22:55.252Z,63.80
2018-11-14T19:25:24.778Z,63.90
2018-11-14T19:27:52.964Z,63.80
2018-11-14T19:30:24.481Z,63.70
2018-11-14T19:32:53.478Z,63.80
2018-11-14T19:35:21.811Z,63.80
2018-11-14T19:37:51.048Z,63.80
2018-11-14T19:40:29.877Z,64.50
2018-11-14T19:42:59.338Z,63.70
2018-11-14T19:45:29.002Z,63.70
2018-11-14T19:47:57.272Z,63.70
2018-11-14T19:50:25.880Z,63.70
2018-11-14T19:52:54.290Z,63.70
2018-11-14T19:55:23.611Z,63.60
2018-11-14T19:57:53.113Z,63.60
2018-11-14T20:00:26.630Z,63.70
2018-11-14T20:02:54.824Z,63.90
2018-11-14T20:05:23.326Z,64.00
2018-11-14T20:07:51.551Z,64.00
2018-11-14T20:10:20.982Z,64.00
2018-11-14T20:12:49.719Z,64.00
2018-11-14T20:15:26.969Z,64.00
2018-11-14T20:17:55.279Z,64.30
2018-11-14T20:20:24.921Z,64.40
2018-11-14T20:22:53.101Z,64.60
2018-11-14T20:25:21.306Z,64.60
2018-11-14T20:27:49.655Z,64.60
2018-11-14T20:30:23.242Z,64.70
2018-11-14T20:32:52.009Z,64.70
2018-11-14T20:35:21.131Z,65.00
2018-11-14T20:37:49.374Z,64.80
2018-11-14T20:40:18.778Z,64.80
2018-11-14T20:42:47.590Z,65.00
2018-11-14T20:45:18.581Z,65.10
2018-11-14T20:47:46.845Z,65.30
2018-11-14T20:50:16.805Z,65.20
2018-11-14T20:52:45.915Z,65.20
2018-11-14T20:55:14.225Z,65.10
2018-11-14T20:57:42.967Z,65.30
2018-11-14T21:00:16.863Z,65.30
2018-11-14T21:02:45.065Z,65.30
2018-11-14T21:05:13.286Z,65.30
2018-11-14T21:07:42.531Z,65.40
2018-11-14T21:10:14.884Z,65.40
2018-11-14T21:12:43.261Z,65.50
2018-11-14T21:15:14.482Z,65.50
2018-11-14T21:17:42.942Z,65.50
2018-11-14T21:20:11.404Z,65.40
2018-11-14T21:22:40.886Z,65.30
2018-11-14T21:25:10.567Z,65.40
2018-11-14T21:27:39.161Z,65.30
2018-11-14T21:30:09.385Z,65.30
2018-11-14T21:32:38.095Z,65.30
2018-11-14T21:35:09.086Z,65.30
2018-11-14T21:37:37.338Z,65.20
2018-11-14T21:40:07.277Z,65.20
2018-11-14T21:42:35.567Z,65.40
2018-11-14T21:45:03.832Z,65.20
2018-11-14T21:47:37.403Z,65.20
2018-11-14T21:50:10.843Z,65.20
2018-11-14T21:52:39.207Z,65.30
2018-11-14T21:55:08.366Z,65.10
2018-11-14T21:57:36.866Z,65.20
2018-11-14T22:00:14.621Z,65.40
2018-11-14T22:02:45.047Z,65.10
2018-11-14T22:05:13.511Z,65.30
2018-11-14T22:07:41.726Z,65.70
2018-11-14T22:10:12.633Z,65.70
2018-11-14T22:12:41.419Z,65.80
2018-11-14T22:15:10.206Z,65.80
2018-11-14T22:17:41.568Z,65.60
2018-11-14T22:20:11.837Z,65.60
2018-11-14T22:22:40.775Z,65.50
2018-11-14T22:25:09.751Z,65.50
2018-11-14T22:27:37.991Z,65.50
2018-11-14T22:30:10.286Z,65.40
2018-11-14T22:32:38.492Z,65.60
2018-11-14T22:35:08.525Z,65.50
2018-11-14T22:37:37.671Z,65.70
2018-11-14T22:40:07.679Z,65.70
2018-11-14T22:42:36.762Z,65.60
2018-11-14T22:45:05.171Z,65.50
2018-11-14T22:47:33.441Z,65.40
2018-11-14T22:50:01.635Z,65.30
2018-11-14T22:52:29.901Z,65.20
2018-11-14T22:54:58.251Z,65.30
2018-11-14T22:57:26.585Z,65.40
2018-11-14T22:59:54.758Z,65.20
2018-11-14T23:02:23.063Z,65.10
2018-11-14T23:04:51.302Z,65.20
2018-11-14T23:07:19.542Z,65.10
2018-11-14T23:09:47.805Z,65.00
2018-11-14T23:12:15.967Z,65.10
2018-11-14T23:14:44.154Z,65.10
2018-11-14T23:17:12.459Z,65.00
2018-11-14T23:19:40.653Z,65.90
2018-11-14T23:22:08.862Z,65.70
2018-11-14T23:24:37.062Z,65.60
2018-11-14T23:27:05.854Z,65.50
2018-11-14T23:29:34.406Z,65.60
2018-11-14T23:32:02.595Z,65.60
2018-11-14T23:34:31.061Z,65.70
2018-11-14T23:36:59.238Z,65.70
2018-11-14T23:39:27.505Z,65.60
2018-11-14T23:41:55.697Z,65.70
2018-11-14T23:44:23.881Z,65.80
2018-11-14T23:46:52.062Z,65.90
2018-11-14T23:49:20.322Z,65.90
2018-11-14T23:51:49.589Z,66.00
2018-11-14T23:54:17.784Z,66.10
2018-11-14T23:56:45.968Z,66.00
2018-11-14T23:59:14.166Z,66.20
